sensor_id;sensor_type;location;lat;lon;timestamp;P1;durP1;ratioP1;P2;durP2;ratioP2
7497;SDS011;3790;48.806;9.140;2023-08-30T00:04:43;3.50;;;2.25;;
7497;SDS011;3790;48.806;9.140;2023-08-30T00:09:44;3.63;;;2.58;;
7497;SDS011;3790;48.806;9.140;2023-08-30T00:14:44;4.95;;;3.00;;
7497;SDS011;3790;48.806;9.140;2023-08-30T00:19:45;3.47;;;2.58;;
7497;SDS011;3790;48.806;9.140;2023-08-30T00:24:46;3.80;;;2.58;;
7497;SDS011;3790;48.806;9.140;2023-08-30T00:29:46;4.60;;;2.20;;
7497;SDS011;3790;48.806;9.140;2023-08-30T00:34:50;3.78;;;2.70;;
7497;SDS011;3790;48.806;9.140;2023-08-30T00:39:51;3.28;;;2.20;;
7497;SDS011;3790;48.806;9.140;2023-08-30T00:44:51;2.85;;;1.85;;
7497;SDS011;3790;48.806;9.140;2023-08-30T00:49:52;3.47;;;2.20;;
7497;SDS011;3790;48.806;9.140;2023-08-30T00:54:53;3.63;;;2.50;;
7497;SDS011;3790;48.806;9.140;2023-08-30T00:59:53;2.58;;;1.95;;
7497;SDS011;3790;48.806;9.140;2023-08-30T01:04:55;3.40;;;2.35;;
7497;SDS011;3790;48.806;9.140;2023-08-30T01:09:56;3.35;;;2.20;;
7497;SDS011;3790;48.806;9.140;2023-08-30T01:15:00;2.97;;;1.88;;
7497;SDS011;3790;48.806;9.140;2023-08-30T01:20:07;3.00;;;2.00;;
7497;SDS011;3790;48.806;9.140;2023-08-30T01:30:15;2.40;;;1.70;;
7497;SDS011;3790;48.806;9.140;2023-08-30T01:35:17;3.28;;;2.08;;
7497;SDS011;3790;48.806;9.140;2023-08-30T01:40:19;2.75;;;1.90;;
7497;SDS011;3790;48.806;9.140;2023-08-30T01:45:20;3.45;;;2.22;;
7497;SDS011;3790;48.806;9.140;2023-08-30T01:50:23;3.63;;;2.00;;
7497;SDS011;3790;48.806;9.140;2023-08-30T01:55:24;2.78;;;1.77;;
7497;SDS011;3790;48.806;9.140;2023-08-30T02:00:26;2.90;;;1.85;;
7497;SDS011;3790;48.806;9.140;2023-08-30T02:05:27;3.60;;;2.27;;
7497;SDS011;3790;48.806;9.140;2023-08-30T02:10:28;2.97;;;1.65;;
7497;SDS011;3790;48.806;9.140;2023-08-30T02:15:35;3.15;;;1.77;;
7497;SDS011;3790;48.806;9.140;2023-08-30T02:20:36;3.30;;;2.00;;
7497;SDS011;3790;48.806;9.140;2023-08-30T02:25:37;2.73;;;1.70;;
7497;SDS011;3790;48.806;9.140;2023-08-30T02:30:37;4.70;;;2.00;;
7497;SDS011;3790;48.806;9.140;2023-08-30T02:35:38;2.95;;;2.10;;
7497;SDS011;3790;48.806;9.140;2023-08-30T02:40:38;2.87;;;2.10;;
7497;SDS011;3790;48.806;9.140;2023-08-30T02:45:39;3.83;;;2.17;;
7497;SDS011;3790;48.806;9.140;2023-08-30T02:50:39;3.23;;;2.00;;
7497;SDS011;3790;48.806;9.140;2023-08-30T02:55:40;4.10;;;2.30;;
7497;SDS011;3790;48.806;9.140;2023-08-30T03:00:41;3.37;;;2.27;;
7497;SDS011;3790;48.806;9.140;2023-08-30T03:05:41;3.67;;;2.50;;
7497;SDS011;3790;48.806;9.140;2023-08-30T03:10:42;5.17;;;2.70;;
7497;SDS011;3790;48.806;9.140;2023-08-30T03:15:42;3.67;;;2.47;;
7497;SDS011;3790;48.806;9.140;2023-08-30T03:20:43;3.40;;;2.20;;
7497;SDS011;3790;48.806;9.140;2023-08-30T03:25:43;3.97;;;2.50;;
7497;SDS011;3790;48.806;9.140;2023-08-30T03:30:44;3.27;;;2.20;;
7497;SDS011;3790;48.806;9.140;2023-08-30T03:35:44;3.33;;;2.53;;
7497;SDS011;3790;48.806;9.140;2023-08-30T03:40:45;5.03;;;2.70;;
7497;SDS011;3790;48.806;9.140;2023-08-30T03:45:45;4.37;;;3.07;;
7497;SDS011;3790;48.806;9.140;2023-08-30T03:50:46;4.43;;;2.63;;
7497;SDS011;3790;48.806;9.140;2023-08-30T03:55:46;3.87;;;2.23;;
7497;SDS011;3790;48.806;9.140;2023-08-30T04:00:47;4.47;;;1.77;;
7497;SDS011;3790;48.806;9.140;2023-08-30T04:05:47;3.88;;;2.28;;
7497;SDS011;3790;48.806;9.140;2023-08-30T04:10:54;3.77;;;2.43;;
7497;SDS011;3790;48.806;9.140;2023-08-30T04:15:54;3.33;;;2.08;;
7497;SDS011;3790;48.806;9.140;2023-08-30T04:20:58;3.45;;;2.35;;
7497;SDS011;3790;48.806;9.140;2023-08-30T04:25:59;3.87;;;2.63;;
7497;SDS011;3790;48.806;9.140;2023-08-30T04:30:59;3.70;;;2.17;;
7497;SDS011;3790;48.806;9.140;2023-08-30T04:36:00;4.35;;;2.95;;
7497;SDS011;3790;48.806;9.140;2023-08-30T04:41:04;3.80;;;2.63;;
7497;SDS011;3790;48.806;9.140;2023-08-30T04:46:05;3.20;;;2.50;;
7497;SDS011;3790;48.806;9.140;2023-08-30T04:51:06;5.13;;;2.67;;
7497;SDS011;3790;48.806;9.140;2023-08-30T04:56:10;4.03;;;2.33;;
7497;SDS011;3790;48.806;9.140;2023-08-30T05:01:14;4.93;;;3.00;;
7497;SDS011;3790;48.806;9.140;2023-08-30T05:06:15;5.18;;;3.38;;
7497;SDS011;3790;48.806;9.140;2023-08-30T05:11:16;5.22;;;3.42;;
7497;SDS011;3790;48.806;9.140;2023-08-30T05:16:16;4.32;;;2.88;;
7497;SDS011;3790;48.806;9.140;2023-08-30T05:21:17;4.65;;;2.83;;
7497;SDS011;3790;48.806;9.140;2023-08-30T05:26:17;5.20;;;3.08;;
7497;SDS011;3790;48.806;9.140;2023-08-30T05:31:19;4.18;;;2.67;;
7497;SDS011;3790;48.806;9.140;2023-08-30T05:36:20;3.20;;;2.40;;
7497;SDS011;3790;48.806;9.140;2023-08-30T05:41:20;3.13;;;2.30;;
7497;SDS011;3790;48.806;9.140;2023-08-30T05:46:21;3.17;;;2.17;;
7497;SDS011;3790;48.806;9.140;2023-08-30T05:51:21;3.00;;;2.10;;
7497;SDS011;3790;48.806;9.140;2023-08-30T05:56:22;3.30;;;2.33;;
7497;SDS011;3790;48.806;9.140;2023-08-30T06:01:22;4.82;;;2.60;;
7497;SDS011;3790;48.806;9.140;2023-08-30T06:06:23;3.92;;;2.75;;
7497;SDS011;3790;48.806;9.140;2023-08-30T06:11:23;3.75;;;2.50;;
7497;SDS011;3790;48.806;9.140;2023-08-30T06:16:24;3.88;;;2.60;;
7497;SDS011;3790;48.806;9.140;2023-08-30T06:21:25;4.88;;;2.72;;
7497;SDS011;3790;48.806;9.140;2023-08-30T06:26:26;4.10;;;2.70;;
7497;SDS011;3790;48.806;9.140;2023-08-30T06:31:26;3.63;;;2.40;;
7497;SDS011;3790;48.806;9.140;2023-08-30T06:36:29;3.45;;;2.42;;
7497;SDS011;3790;48.806;9.140;2023-08-30T06:41:29;3.35;;;2.33;;
7497;SDS011;3790;48.806;9.140;2023-08-30T06:46:32;3.58;;;2.30;;
7497;SDS011;3790;48.806;9.140;2023-08-30T06:51:33;5.25;;;2.20;;
7497;SDS011;3790;48.806;9.140;2023-08-30T06:56:34;2.85;;;1.92;;
7497;SDS011;3790;48.806;9.140;2023-08-30T07:01:34;2.67;;;1.90;;
7497;SDS011;3790;48.806;9.140;2023-08-30T07:06:35;2.72;;;1.80;;
7497;SDS011;3790;48.806;9.140;2023-08-30T07:11:36;3.40;;;2.40;;
7497;SDS011;3790;48.806;9.140;2023-08-30T07:16:39;3.33;;;2.10;;
7497;SDS011;3790;48.806;9.140;2023-08-30T07:21:40;3.60;;;2.45;;
7497;SDS011;3790;48.806;9.140;2023-08-30T07:26:42;4.05;;;2.40;;
7497;SDS011;3790;48.806;9.140;2023-08-30T07:31:42;3.60;;;2.30;;
7497;SDS011;3790;48.806;9.140;2023-08-30T07:36:43;3.30;;;2.28;;
7497;SDS011;3790;48.806;9.140;2023-08-30T07:41:43;3.78;;;2.47;;
7497;SDS011;3790;48.806;9.140;2023-08-30T07:46:44;4.10;;;2.50;;
7497;SDS011;3790;48.806;9.140;2023-08-30T07:51:44;3.63;;;2.40;;
7497;SDS011;3790;48.806;9.140;2023-08-30T07:56:45;3.25;;;1.95;;
7497;SDS011;3790;48.806;9.140;2023-08-30T08:01:46;3.55;;;2.10;;
7497;SDS011;3790;48.806;9.140;2023-08-30T08:06:46;3.92;;;2.25;;
7497;SDS011;3790;48.806;9.140;2023-08-30T08:11:50;3.17;;;2.17;;
7497;SDS011;3790;48.806;9.140;2023-08-30T08:16:50;3.53;;;2.17;;
7497;SDS011;3790;48.806;9.140;2023-08-30T08:21:51;2.97;;;1.88;;
7497;SDS011;3790;48.806;9.140;2023-08-30T08:26:53;2.65;;;1.90;;
7497;SDS011;3790;48.806;9.140;2023-08-30T08:31:54;2.70;;;1.83;;
7497;SDS011;3790;48.806;9.140;2023-08-30T08:36:54;3.35;;;2.00;;
7497;SDS011;3790;48.806;9.140;2023-08-30T08:41:55;3.08;;;1.77;;
7497;SDS011;3790;48.806;9.140;2023-08-30T08:46:55;4.15;;;1.73;;
7497;SDS011;3790;48.806;9.140;2023-08-30T08:51:56;2.90;;;1.70;;
7497;SDS011;3790;48.806;9.140;2023-08-30T08:56:57;2.97;;;1.60;;
7497;SDS011;3790;48.806;9.140;2023-08-30T09:02:01;2.03;;;1.40;;
7497;SDS011;3790;48.806;9.140;2023-08-30T09:07:02;2.90;;;1.70;;
7497;SDS011;3790;48.806;9.140;2023-08-30T09:12:03;2.30;;;1.45;;
7497;SDS011;3790;48.806;9.140;2023-08-30T09:17:04;3.40;;;1.23;;
7497;SDS011;3790;48.806;9.140;2023-08-30T09:22:04;1.80;;;1.13;;
7497;SDS011;3790;48.806;9.140;2023-08-30T09:27:05;2.20;;;1.23;;
7497;SDS011;3790;48.806;9.140;2023-08-30T09:32:07;1.85;;;0.93;;
7497;SDS011;3790;48.806;9.140;2023-08-30T09:37:08;1.70;;;1.00;;
7497;SDS011;3790;48.806;9.140;2023-08-30T09:42:19;1.95;;;1.20;;
7497;SDS011;3790;48.806;9.140;2023-08-30T09:47:20;1.30;;;0.88;;
7497;SDS011;3790;48.806;9.140;2023-08-30T09:52:25;2.13;;;0.93;;
7497;SDS011;3790;48.806;9.140;2023-08-30T09:57:28;1.73;;;0.90;;
7497;SDS011;3790;48.806;9.140;2023-08-30T10:02:29;1.17;;;0.80;;
7497;SDS011;3790;48.806;9.140;2023-08-30T10:07:31;2.10;;;1.00;;
7497;SDS011;3790;48.806;9.140;2023-08-30T10:12:32;1.63;;;0.95;;
7497;SDS011;3790;48.806;9.140;2023-08-30T10:17:33;2.20;;;0.90;;
7497;SDS011;3790;48.806;9.140;2023-08-30T10:22:35;1.45;;;0.80;;
7497;SDS011;3790;48.806;9.140;2023-08-30T10:27:38;1.08;;;0.75;;
7497;SDS011;3790;48.806;9.140;2023-08-30T10:32:42;1.10;;;0.80;;
7497;SDS011;3790;48.806;9.140;2023-08-30T10:37:54;1.63;;;0.93;;
7497;SDS011;3790;48.806;9.140;2023-08-30T10:42:59;1.67;;;0.90;;
7497;SDS011;3790;48.806;9.140;2023-08-30T10:48:04;1.63;;;1.00;;
7497;SDS011;3790;48.806;9.140;2023-08-30T10:53:12;2.13;;;1.00;;
7497;SDS011;3790;48.806;9.140;2023-08-30T10:58:14;1.30;;;0.80;;
7497;SDS011;3790;48.806;9.140;2023-08-30T11:03:17;2.70;;;1.13;;
7497;SDS011;3790;48.806;9.140;2023-08-30T11:08:18;1.52;;;0.95;;
7497;SDS011;3790;48.806;9.140;2023-08-30T11:13:20;1.25;;;0.70;;
7497;SDS011;3790;48.806;9.140;2023-08-30T11:18:21;1.67;;;0.95;;
7497;SDS011;3790;48.806;9.140;2023-08-30T11:23:22;1.63;;;1.00;;
7497;SDS011;3790;48.806;9.140;2023-08-30T11:28:23;1.95;;;1.23;;
7497;SDS011;3790;48.806;9.140;2023-08-30T11:33:24;1.65;;;0.95;;
7497;SDS011;3790;48.806;9.140;2023-08-30T11:38:24;2.50;;;1.55;;
7497;SDS011;3790;48.806;9.140;2023-08-30T11:43:26;2.67;;;1.60;;
7497;SDS011;3790;48.806;9.140;2023-08-30T11:48:28;2.30;;;1.48;;
7497;SDS011;3790;48.806;9.140;2023-08-30T11:53:31;2.03;;;1.35;;
7497;SDS011;3790;48.806;9.140;2023-08-30T11:58:32;2.97;;;1.30;;
7497;SDS011;3790;48.806;9.140;2023-08-30T12:03:34;2.83;;;1.25;;
7497;SDS011;3790;48.806;9.140;2023-08-30T12:08:36;2.45;;;1.50;;
7497;SDS011;3790;48.806;9.140;2023-08-30T12:13:36;2.08;;;1.38;;
7497;SDS011;3790;48.806;9.140;2023-08-30T12:18:37;2.50;;;1.50;;
7497;SDS011;3790;48.806;9.140;2023-08-30T12:23:37;2.50;;;1.30;;
7497;SDS011;3790;48.806;9.140;2023-08-30T12:28:38;2.25;;;1.20;;
7497;SDS011;3790;48.806;9.140;2023-08-30T12:33:40;2.50;;;1.60;;
7497;SDS011;3790;48.806;9.140;2023-08-30T12:38:41;2.22;;;1.30;;
7497;SDS011;3790;48.806;9.140;2023-08-30T12:43:41;2.45;;;1.40;;
7497;SDS011;3790;48.806;9.140;2023-08-30T12:48:44;2.35;;;1.25;;
7497;SDS011;3790;48.806;9.140;2023-08-30T12:53:44;2.17;;;1.20;;
7497;SDS011;3790;48.806;9.140;2023-08-30T12:58:45;1.73;;;1.10;;
7497;SDS011;3790;48.806;9.140;2023-08-30T13:03:46;2.20;;;1.40;;
7497;SDS011;3790;48.806;9.140;2023-08-30T13:08:46;1.95;;;1.20;;
7497;SDS011;3790;48.806;9.140;2023-08-30T13:13:54;1.70;;;1.15;;
7497;SDS011;3790;48.806;9.140;2023-08-30T13:18:56;1.83;;;1.10;;
7497;SDS011;3790;48.806;9.140;2023-08-30T13:23:57;1.88;;;1.17;;
7497;SDS011;3790;48.806;9.140;2023-08-30T13:28:57;2.05;;;1.10;;
7497;SDS011;3790;48.806;9.140;2023-08-30T13:33:58;2.35;;;1.20;;
7497;SDS011;3790;48.806;9.140;2023-08-30T13:38:59;2.13;;;1.23;;
7497;SDS011;3790;48.806;9.140;2023-08-30T13:44:00;2.90;;;1.77;;
7497;SDS011;3790;48.806;9.140;2023-08-30T13:49:00;2.13;;;1.00;;
7497;SDS011;3790;48.806;9.140;2023-08-30T13:54:01;1.70;;;1.10;;
7497;SDS011;3790;48.806;9.140;2023-08-30T13:59:01;1.83;;;1.05;;
7497;SDS011;3790;48.806;9.140;2023-08-30T14:04:02;2.00;;;1.00;;
7497;SDS011;3790;48.806;9.140;2023-08-30T14:09:04;2.20;;;1.10;;
7497;SDS011;3790;48.806;9.140;2023-08-30T14:14:10;2.05;;;1.05;;
7497;SDS011;3790;48.806;9.140;2023-08-30T14:19:10;2.30;;;1.10;;
7497;SDS011;3790;48.806;9.140;2023-08-30T14:24:11;2.47;;;1.00;;
7497;SDS011;3790;48.806;9.140;2023-08-30T14:29:12;1.27;;;0.75;;
7497;SDS011;3790;48.806;9.140;2023-08-30T14:34:12;2.20;;;1.20;;
7497;SDS011;3790;48.806;9.140;2023-08-30T14:39:13;2.35;;;1.00;;
7497;SDS011;3790;48.806;9.140;2023-08-30T14:44:13;1.85;;;1.30;;
7497;SDS011;3790;48.806;9.140;2023-08-30T14:49:14;1.77;;;1.17;;
7497;SDS011;3790;48.806;9.140;2023-08-30T14:54:14;3.10;;;1.05;;
7497;SDS011;3790;48.806;9.140;2023-08-30T14:59:15;2.38;;;1.30;;
7497;SDS011;3790;48.806;9.140;2023-08-30T15:04:15;1.83;;;1.00;;
7497;SDS011;3790;48.806;9.140;2023-08-30T15:09:16;5.70;;;1.20;;
7497;SDS011;3790;48.806;9.140;2023-08-30T15:14:17;1.75;;;1.10;;
7497;SDS011;3790;48.806;9.140;2023-08-30T15:19:17;1.88;;;1.17;;
7497;SDS011;3790;48.806;9.140;2023-08-30T15:24:18;1.77;;;1.15;;
7497;SDS011;3790;48.806;9.140;2023-08-30T15:29:18;1.40;;;0.90;;
7497;SDS011;3790;48.806;9.140;2023-08-30T15:34:19;2.17;;;1.20;;
7497;SDS011;3790;48.806;9.140;2023-08-30T15:39:20;2.33;;;1.10;;
7497;SDS011;3790;48.806;9.140;2023-08-30T15:44:20;1.05;;;0.77;;
7497;SDS011;3790;48.806;9.140;2023-08-30T15:49:21;1.67;;;1.00;;
7497;SDS011;3790;48.806;9.140;2023-08-30T15:54:23;1.75;;;1.00;;
7497;SDS011;3790;48.806;9.140;2023-08-30T15:59:24;1.75;;;1.10;;
7497;SDS011;3790;48.806;9.140;2023-08-30T16:04:24;1.92;;;1.00;;
7497;SDS011;3790;48.806;9.140;2023-08-30T16:09:25;2.13;;;1.10;;
7497;SDS011;3790;48.806;9.140;2023-08-30T16:14:25;1.42;;;0.98;;
7497;SDS011;3790;48.806;9.140;2023-08-30T16:19:26;2.22;;;1.27;;
7497;SDS011;3790;48.806;9.140;2023-08-30T16:24:26;1.77;;;1.10;;
7497;SDS011;3790;48.806;9.140;2023-08-30T16:29:28;1.98;;;1.20;;
7497;SDS011;3790;48.806;9.140;2023-08-30T16:34:28;1.38;;;0.85;;
7497;SDS011;3790;48.806;9.140;2023-08-30T16:39:29;1.67;;;0.80;;
7497;SDS011;3790;48.806;9.140;2023-08-30T16:44:30;1.95;;;1.10;;
7497;SDS011;3790;48.806;9.140;2023-08-30T16:49:30;0.98;;;0.70;;
7497;SDS011;3790;48.806;9.140;2023-08-30T16:54:31;4.20;;;0.93;;
7497;SDS011;3790;48.806;9.140;2023-08-30T16:59:31;1.45;;;0.93;;
7497;SDS011;3790;48.806;9.140;2023-08-30T17:04:32;1.77;;;0.90;;
7497;SDS011;3790;48.806;9.140;2023-08-30T17:09:33;1.25;;;0.73;;
7497;SDS011;3790;48.806;9.140;2023-08-30T17:14:36;1.90;;;1.13;;
7497;SDS011;3790;48.806;9.140;2023-08-30T17:19:37;2.03;;;1.00;;
7497;SDS011;3790;48.806;9.140;2023-08-30T17:24:37;1.80;;;1.17;;
7497;SDS011;3790;48.806;9.140;2023-08-30T17:29:38;2.50;;;1.20;;
7497;SDS011;3790;48.806;9.140;2023-08-30T17:34:38;3.33;;;1.48;;
7497;SDS011;3790;48.806;9.140;2023-08-30T17:39:40;2.45;;;1.27;;
7497;SDS011;3790;48.806;9.140;2023-08-30T17:44:40;1.83;;;1.02;;
7497;SDS011;3790;48.806;9.140;2023-08-30T17:49:43;2.50;;;1.20;;
7497;SDS011;3790;48.806;9.140;2023-08-30T17:54:43;4.30;;;1.38;;
7497;SDS011;3790;48.806;9.140;2023-08-30T17:59:44;1.90;;;1.23;;
7497;SDS011;3790;48.806;9.140;2023-08-30T18:04:44;1.63;;;1.17;;
7497;SDS011;3790;48.806;9.140;2023-08-30T18:09:45;3.10;;;1.40;;
7497;SDS011;3790;48.806;9.140;2023-08-30T18:14:45;1.48;;;1.08;;
7497;SDS011;3790;48.806;9.140;2023-08-30T18:19:47;2.97;;;1.50;;
7497;SDS011;3790;48.806;9.140;2023-08-30T18:24:48;1.88;;;1.20;;
7497;SDS011;3790;48.806;9.140;2023-08-30T18:29:49;2.50;;;1.50;;
7497;SDS011;3790;48.806;9.140;2023-08-30T18:34:50;2.17;;;1.30;;
7497;SDS011;3790;48.806;9.140;2023-08-30T18:39:50;2.15;;;1.27;;
7497;SDS011;3790;48.806;9.140;2023-08-30T18:44:51;3.20;;;1.33;;
7497;SDS011;3790;48.806;9.140;2023-08-30T18:49:52;1.92;;;1.15;;
7497;SDS011;3790;48.806;9.140;2023-08-30T18:54:52;3.38;;;1.58;;
7497;SDS011;3790;48.806;9.140;2023-08-30T18:59:53;2.47;;;1.20;;
7497;SDS011;3790;48.806;9.140;2023-08-30T19:04:53;1.08;;;0.75;;
7497;SDS011;3790;48.806;9.140;2023-08-30T19:09:54;2.17;;;0.80;;
7497;SDS011;3790;48.806;9.140;2023-08-30T19:14:55;2.10;;;1.10;;
7497;SDS011;3790;48.806;9.140;2023-08-30T19:19:55;1.92;;;1.05;;
7497;SDS011;3790;48.806;9.140;2023-08-30T19:24:56;1.80;;;0.93;;
7497;SDS011;3790;48.806;9.140;2023-08-30T19:29:57;1.95;;;1.00;;
7497;SDS011;3790;48.806;9.140;2023-08-30T19:34:57;1.77;;;1.10;;
7497;SDS011;3790;48.806;9.140;2023-08-30T19:39:58;1.63;;;0.88;;
7497;SDS011;3790;48.806;9.140;2023-08-30T19:45:04;1.77;;;1.08;;
7497;SDS011;3790;48.806;9.140;2023-08-30T19:50:05;1.92;;;1.10;;
7497;SDS011;3790;48.806;9.140;2023-08-30T19:55:06;1.73;;;1.17;;
7497;SDS011;3790;48.806;9.140;2023-08-30T20:00:07;2.50;;;1.10;;
7497;SDS011;3790;48.806;9.140;2023-08-30T20:05:09;3.67;;;1.60;;
7497;SDS011;3790;48.806;9.140;2023-08-30T20:10:10;2.92;;;1.20;;
7497;SDS011;3790;48.806;9.140;2023-08-30T20:15:11;2.88;;;1.20;;
7497;SDS011;3790;48.806;9.140;2023-08-30T20:20:12;1.90;;;1.08;;
7497;SDS011;3790;48.806;9.140;2023-08-30T20:25:12;2.15;;;1.17;;
7497;SDS011;3790;48.806;9.140;2023-08-30T20:30:14;2.05;;;1.10;;
7497;SDS011;3790;48.806;9.140;2023-08-30T20:35:14;3.35;;;1.20;;
7497;SDS011;3790;48.806;9.140;2023-08-30T20:40:18;3.33;;;1.33;;
7497;SDS011;3790;48.806;9.140;2023-08-30T20:45:19;8.40;;;1.30;;
7497;SDS011;3790;48.806;9.140;2023-08-30T20:50:19;1.92;;;1.00;;
7497;SDS011;3790;48.806;9.140;2023-08-30T20:55:20;2.53;;;1.23;;
7497;SDS011;3790;48.806;9.140;2023-08-30T21:00:21;2.63;;;1.17;;
7497;SDS011;3790;48.806;9.140;2023-08-30T21:05:21;3.83;;;1.55;;
7497;SDS011;3790;48.806;9.140;2023-08-30T21:10:22;2.08;;;1.10;;
7497;SDS011;3790;48.806;9.140;2023-08-30T21:15:22;2.53;;;1.30;;
7497;SDS011;3790;48.806;9.140;2023-08-30T21:20:23;1.67;;;0.95;;
7497;SDS011;3790;48.806;9.140;2023-08-30T21:25:29;1.58;;;1.00;;
7497;SDS011;3790;48.806;9.140;2023-08-30T21:30:41;3.55;;;1.30;;
7497;SDS011;3790;48.806;9.140;2023-08-30T21:35:44;2.25;;;1.05;;
7497;SDS011;3790;48.806;9.140;2023-08-30T21:40:45;2.08;;;0.90;;
7497;SDS011;3790;48.806;9.140;2023-08-30T21:45:46;2.03;;;0.90;;
7497;SDS011;3790;48.806;9.140;2023-08-30T21:50:46;2.40;;;0.98;;
7497;SDS011;3790;48.806;9.140;2023-08-30T21:55:47;1.10;;;0.70;;
7497;SDS011;3790;48.806;9.140;2023-08-30T22:00:47;1.00;;;0.60;;
7497;SDS011;3790;48.806;9.140;2023-08-30T22:05:48;1.40;;;0.73;;
7497;SDS011;3790;48.806;9.140;2023-08-30T22:10:49;2.05;;;0.95;;
7497;SDS011;3790;48.806;9.140;2023-08-30T22:15:50;1.17;;;0.63;;
7497;SDS011;3790;48.806;9.140;2023-08-30T22:20:51;3.50;;;0.90;;
7497;SDS011;3790;48.806;9.140;2023-08-30T22:25:52;0.80;;;0.60;;
7497;SDS011;3790;48.806;9.140;2023-08-30T22:30:52;5.63;;;1.10;;
7497;SDS011;3790;48.806;9.140;2023-08-30T22:35:56;2.28;;;1.08;;
7497;SDS011;3790;48.806;9.140;2023-08-30T22:40:56;1.05;;;0.70;;
7497;SDS011;3790;48.806;9.140;2023-08-30T22:45:58;1.67;;;0.70;;
7497;SDS011;3790;48.806;9.140;2023-08-30T22:51:01;1.23;;;0.70;;
7497;SDS011;3790;48.806;9.140;2023-08-30T22:56:05;3.05;;;0.80;;
7497;SDS011;3790;48.806;9.140;2023-08-30T23:01:09;1.48;;;0.73;;
7497;SDS011;3790;48.806;9.140;2023-08-30T23:06:09;3.97;;;0.75;;
7497;SDS011;3790;48.806;9.140;2023-08-30T23:11:10;1.50;;;0.75;;
7497;SDS011;3790;48.806;9.140;2023-08-30T23:16:11;2.08;;;0.90;;
7497;SDS011;3790;48.806;9.140;2023-08-30T23:21:13;1.45;;;0.70;;
7497;SDS011;3790;48.806;9.140;2023-08-30T23:26:16;1.80;;;0.90;;
7497;SDS011;3790;48.806;9.140;2023-08-30T23:31:17;1.95;;;1.23;;
7497;SDS011;3790;48.806;9.140;2023-08-30T23:36:21;1.75;;;0.85;;
7497;SDS011;3790;48.806;9.140;2023-08-30T23:41:22;1.05;;;0.68;;
7497;SDS011;3790;48.806;9.140;2023-08-30T23:46:23;2.00;;;0.70;;
7497;SDS011;3790;48.806;9.140;2023-08-30T23:51:23;1.55;;;0.82;;
7497;SDS011;3790;48.806;9.140;2023-08-30T23:56:24;1.08;;;0.75;;
